sensor_id;sensor_type;location;lat;lon;timestamp;P1;durP1;ratioP1;P2;durP2;ratioP2
32130;SDS011;18639;50.716;7.086;2024-03-08T00:00:18;12.43;;;4.13;;
32130;SDS011;18639;50.716;7.086;2024-03-08T00:02:44;12.38;;;4.03;;
32130;SDS011;18639;50.716;7.086;2024-03-08T00:05:10;10.70;;;4.50;;
32130;SDS011;18639;50.716;7.086;2024-03-08T00:07:40;10.25;;;3.97;;
32130;SDS011;18639;50.716;7.086;2024-03-08T00:10:06;12.40;;;3.53;;
32130;SDS011;18639;50.716;7.086;2024-03-08T00:12:43;10.48;;;4.28;;
32130;SDS011;18639;50.716;7.086;2024-03-08T00:15:13;9.77;;;3.67;;
32130;SDS011;18639;50.716;7.086;2024-03-08T00:17:40;8.25;;;3.58;;
32130;SDS011;18639;50.716;7.086;2024-03-08T00:20:06;10.40;;;3.60;;
32130;SDS011;18639;50.716;7.086;2024-03-08T00:22:37;13.70;;;4.38;;
32130;SDS011;18639;50.716;7.086;2024-03-08T00:25:03;11.55;;;3.42;;
32130;SDS011;18639;50.716;7.086;2024-03-08T00:27:29;11.82;;;4.13;;
32130;SDS011;18639;50.716;7.086;2024-03-08T00:29:57;9.32;;;3.97;;
32130;SDS011;18639;50.716;7.086;2024-03-08T00:32:23;14.23;;;4.10;;
32130;SDS011;18639;50.716;7.086;2024-03-08T00:34:52;10.70;;;3.88;;
32130;SDS011;18639;50.716;7.086;2024-03-08T00:37:20;9.80;;;4.07;;
32130;SDS011;18639;50.716;7.086;2024-03-08T00:39:49;10.25;;;4.28;;
32130;SDS011;18639;50.716;7.086;2024-03-08T00:42:16;10.43;;;4.28;;
32130;SDS011;18639;50.716;7.086;2024-03-08T00:44:41;12.02;;;4.00;;
32130;SDS011;18639;50.716;7.086;2024-03-08T00:47:07;10.48;;;4.13;;
32130;SDS011;18639;50.716;7.086;2024-03-08T00:49:32;12.65;;;4.28;;
32130;SDS011;18639;50.716;7.086;2024-03-08T00:51:58;11.32;;;4.10;;
32130;SDS011;18639;50.716;7.086;2024-03-08T00:54:23;14.95;;;4.18;;
32130;SDS011;18639;50.716;7.086;2024-03-08T00:56:48;13.40;;;4.20;;
32130;SDS011;18639;50.716;7.086;2024-03-08T00:59:14;10.85;;;4.07;;
32130;SDS011;18639;50.716;7.086;2024-03-08T01:01:40;10.98;;;3.85;;
32130;SDS011;18639;50.716;7.086;2024-03-08T01:04:05;16.83;;;3.95;;
32130;SDS011;18639;50.716;7.086;2024-03-08T01:06:31;17.35;;;4.68;;
32130;SDS011;18639;50.716;7.086;2024-03-08T01:08:57;8.82;;;3.42;;
32130;SDS011;18639;50.716;7.086;2024-03-08T01:11:22;9.63;;;3.70;;
32130;SDS011;18639;50.716;7.086;2024-03-08T01:13:47;8.10;;;3.80;;
32130;SDS011;18639;50.716;7.086;2024-03-08T01:16:13;8.60;;;3.97;;
32130;SDS011;18639;50.716;7.086;2024-03-08T01:18:38;10.90;;;3.85;;
32130;SDS011;18639;50.716;7.086;2024-03-08T01:21:03;10.43;;;4.00;;
32130;SDS011;18639;50.716;7.086;2024-03-08T01:23:29;9.55;;;3.70;;
32130;SDS011;18639;50.716;7.086;2024-03-08T01:25:55;9.63;;;4.03;;
32130;SDS011;18639;50.716;7.086;2024-03-08T01:28:25;11.73;;;3.88;;
32130;SDS011;18639;50.716;7.086;2024-03-08T01:30:51;8.55;;;3.10;;
32130;SDS011;18639;50.716;7.086;2024-03-08T01:33:21;9.13;;;3.47;;
32130;SDS011;18639;50.716;7.086;2024-03-08T01:35:50;10.63;;;4.35;;
32130;SDS011;18639;50.716;7.086;2024-03-08T01:38:16;9.38;;;3.67;;
32130;SDS011;18639;50.716;7.086;2024-03-08T01:40:41;13.60;;;3.35;;
32130;SDS011;18639;50.716;7.086;2024-03-08T01:43:17;12.23;;;4.05;;
32130;SDS011;18639;50.716;7.086;2024-03-08T01:45:42;11.27;;;4.10;;
32130;SDS011;18639;50.716;7.086;2024-03-08T01:48:08;13.80;;;4.00;;
32130;SDS011;18639;50.716;7.086;2024-03-08T01:50:33;10.30;;;3.78;;
32130;SDS011;18639;50.716;7.086;2024-03-08T01:52:58;7.93;;;3.17;;
32130;SDS011;18639;50.716;7.086;2024-03-08T01:55:25;11.02;;;3.50;;
32130;SDS011;18639;50.716;7.086;2024-03-08T01:57:50;10.98;;;3.35;;
32130;SDS011;18639;50.716;7.086;2024-03-08T02:00:16;11.23;;;3.78;;
32130;SDS011;18639;50.716;7.086;2024-03-08T02:02:44;9.75;;;3.92;;
32130;SDS011;18639;50.716;7.086;2024-03-08T02:05:11;13.23;;;4.03;;
32130;SDS011;18639;50.716;7.086;2024-03-08T02:07:40;9.20;;;3.20;;
32130;SDS011;18639;50.716;7.086;2024-03-08T02:10:08;9.93;;;3.05;;
32130;SDS011;18639;50.716;7.086;2024-03-08T02:12:34;9.00;;;3.90;;
32130;SDS011;18639;50.716;7.086;2024-03-08T02:15:00;7.15;;;3.05;;
32130;SDS011;18639;50.716;7.086;2024-03-08T02:17:25;12.45;;;3.65;;
32130;SDS011;18639;50.716;7.086;2024-03-08T02:19:51;8.73;;;3.88;;
32130;SDS011;18639;50.716;7.086;2024-03-08T02:22:16;7.80;;;3.40;;
32130;SDS011;18639;50.716;7.086;2024-03-08T02:24:41;10.02;;;3.78;;
32130;SDS011;18639;50.716;7.086;2024-03-08T02:27:07;8.45;;;3.38;;
32130;SDS011;18639;50.716;7.086;2024-03-08T02:29:32;8.82;;;3.50;;
32130;SDS011;18639;50.716;7.086;2024-03-08T02:31:59;10.60;;;3.53;;
32130;SDS011;18639;50.716;7.086;2024-03-08T02:34:24;8.25;;;3.20;;
32130;SDS011;18639;50.716;7.086;2024-03-08T02:36:50;8.63;;;3.03;;
32130;SDS011;18639;50.716;7.086;2024-03-08T02:39:15;8.77;;;2.70;;
32130;SDS011;18639;50.716;7.086;2024-03-08T02:41:41;7.10;;;2.85;;
32130;SDS011;18639;50.716;7.086;2024-03-08T02:44:07;7.72;;;2.45;;
32130;SDS011;18639;50.716;7.086;2024-03-08T02:46:32;7.45;;;3.10;;
32130;SDS011;18639;50.716;7.086;2024-03-08T02:48:58;8.73;;;3.83;;
32130;SDS011;18639;50.716;7.086;2024-03-08T02:51:23;7.88;;;3.67;;
32130;SDS011;18639;50.716;7.086;2024-03-08T02:53:50;7.78;;;3.03;;
32130;SDS011;18639;50.716;7.086;2024-03-08T02:56:16;10.80;;;3.13;;
32130;SDS011;18639;50.716;7.086;2024-03-08T02:58:42;10.48;;;3.05;;
32130;SDS011;18639;50.716;7.086;2024-03-08T03:01:07;6.53;;;2.97;;
32130;SDS011;18639;50.716;7.086;2024-03-08T03:03:33;8.18;;;2.45;;
32130;SDS011;18639;50.716;7.086;2024-03-08T03:05:58;6.43;;;3.10;;
32130;SDS011;18639;50.716;7.086;2024-03-08T03:08:23;10.50;;;2.58;;
32130;SDS011;18639;50.716;7.086;2024-03-08T03:10:49;9.73;;;3.75;;
32130;SDS011;18639;50.716;7.086;2024-03-08T03:13:14;7.50;;;2.67;;
32130;SDS011;18639;50.716;7.086;2024-03-08T03:15:40;9.15;;;3.13;;
32130;SDS011;18639;50.716;7.086;2024-03-08T03:18:08;7.22;;;2.90;;
32130;SDS011;18639;50.716;7.086;2024-03-08T03:20:33;12.15;;;3.75;;
32130;SDS011;18639;50.716;7.086;2024-03-08T03:23:04;5.63;;;2.58;;
32130;SDS011;18639;50.716;7.086;2024-03-08T03:25:32;8.23;;;3.30;;
32130;SDS011;18639;50.716;7.086;2024-03-08T03:28:00;7.22;;;3.15;;
32130;SDS011;18639;50.716;7.086;2024-03-08T03:30:25;10.07;;;2.75;;
32130;SDS011;18639;50.716;7.086;2024-03-08T03:32:52;9.02;;;2.95;;
32130;SDS011;18639;50.716;7.086;2024-03-08T03:35:19;9.75;;;3.30;;
32130;SDS011;18639;50.716;7.086;2024-03-08T03:37:45;9.80;;;3.47;;
32130;SDS011;18639;50.716;7.086;2024-03-08T03:40:26;10.25;;;3.15;;
32130;SDS011;18639;50.716;7.086;2024-03-08T03:42:54;11.65;;;4.10;;
32130;SDS011;18639;50.716;7.086;2024-03-08T03:45:20;7.93;;;3.25;;
32130;SDS011;18639;50.716;7.086;2024-03-08T03:47:45;7.55;;;3.17;;
32130;SDS011;18639;50.716;7.086;2024-03-08T03:50:11;11.30;;;3.03;;
32130;SDS011;18639;50.716;7.086;2024-03-08T03:52:36;10.48;;;3.53;;
32130;SDS011;18639;50.716;7.086;2024-03-08T03:55:02;14.20;;;3.72;;
32130;SDS011;18639;50.716;7.086;2024-03-08T03:57:29;7.10;;;2.78;;
32130;SDS011;18639;50.716;7.086;2024-03-08T03:59:55;11.25;;;4.00;;
32130;SDS011;18639;50.716;7.086;2024-03-08T04:02:20;11.20;;;3.42;;
32130;SDS011;18639;50.716;7.086;2024-03-08T04:04:46;11.52;;;3.60;;
32130;SDS011;18639;50.716;7.086;2024-03-08T04:07:12;13.00;;;3.17;;
32130;SDS011;18639;50.716;7.086;2024-03-08T04:09:37;10.88;;;3.85;;
32130;SDS011;18639;50.716;7.086;2024-03-08T04:12:02;10.38;;;3.78;;
32130;SDS011;18639;50.716;7.086;2024-03-08T04:14:28;12.82;;;3.58;;
32130;SDS011;18639;50.716;7.086;2024-03-08T04:16:53;9.63;;;3.35;;
32130;SDS011;18639;50.716;7.086;2024-03-08T04:19:18;11.35;;;3.50;;
32130;SDS011;18639;50.716;7.086;2024-03-08T04:21:44;9.85;;;3.10;;
32130;SDS011;18639;50.716;7.086;2024-03-08T04:24:09;6.55;;;2.72;;
32130;SDS011;18639;50.716;7.086;2024-03-08T04:26:35;11.60;;;3.80;;
32130;SDS011;18639;50.716;7.086;2024-03-08T04:29:01;7.38;;;3.33;;
32130;SDS011;18639;50.716;7.086;2024-03-08T04:31:26;10.48;;;3.58;;
32130;SDS011;18639;50.716;7.086;2024-03-08T04:33:51;10.80;;;3.83;;
32130;SDS011;18639;50.716;7.086;2024-03-08T04:36:17;8.35;;;2.97;;
32130;SDS011;18639;50.716;7.086;2024-03-08T04:38:42;7.72;;;3.08;;
32130;SDS011;18639;50.716;7.086;2024-03-08T04:41:07;10.05;;;3.72;;
32130;SDS011;18639;50.716;7.086;2024-03-08T04:43:33;10.38;;;3.75;;
32130;SDS011;18639;50.716;7.086;2024-03-08T04:45:59;9.68;;;3.33;;
32130;SDS011;18639;50.716;7.086;2024-03-08T04:48:24;21.85;;;3.67;;
32130;SDS011;18639;50.716;7.086;2024-03-08T04:50:52;11.73;;;2.92;;
32130;SDS011;18639;50.716;7.086;2024-03-08T04:53:18;7.70;;;2.70;;
32130;SDS011;18639;50.716;7.086;2024-03-08T04:55:44;11.13;;;3.65;;
32130;SDS011;18639;50.716;7.086;2024-03-08T04:58:09;6.70;;;2.63;;
32130;SDS011;18639;50.716;7.086;2024-03-08T05:00:37;10.70;;;3.55;;
32130;SDS011;18639;50.716;7.086;2024-03-08T05:03:03;8.23;;;3.33;;
32130;SDS011;18639;50.716;7.086;2024-03-08T05:05:29;5.70;;;2.53;;
32130;SDS011;18639;50.716;7.086;2024-03-08T05:07:55;13.35;;;4.22;;
32130;SDS011;18639;50.716;7.086;2024-03-08T05:10:20;12.63;;;3.63;;
32130;SDS011;18639;50.716;7.086;2024-03-08T05:12:45;11.77;;;3.90;;
32130;SDS011;18639;50.716;7.086;2024-03-08T05:15:11;7.45;;;3.40;;
32130;SDS011;18639;50.716;7.086;2024-03-08T05:17:37;11.20;;;3.25;;
32130;SDS011;18639;50.716;7.086;2024-03-08T05:20:02;10.75;;;3.53;;
32130;SDS011;18639;50.716;7.086;2024-03-08T05:22:28;8.80;;;2.90;;
32130;SDS011;18639;50.716;7.086;2024-03-08T05:24:54;8.63;;;3.45;;
32130;SDS011;18639;50.716;7.086;2024-03-08T05:27:19;8.68;;;3.33;;
32130;SDS011;18639;50.716;7.086;2024-03-08T05:29:44;9.75;;;3.55;;
32130;SDS011;18639;50.716;7.086;2024-03-08T05:32:11;8.20;;;2.75;;
32130;SDS011;18639;50.716;7.086;2024-03-08T05:34:37;6.40;;;2.58;;
32130;SDS011;18639;50.716;7.086;2024-03-08T05:37:02;11.05;;;3.15;;
32130;SDS011;18639;50.716;7.086;2024-03-08T05:39:28;6.30;;;2.75;;
32130;SDS011;18639;50.716;7.086;2024-03-08T05:41:53;6.60;;;2.40;;
32130;SDS011;18639;50.716;7.086;2024-03-08T05:44:20;8.95;;;2.67;;
32130;SDS011;18639;50.716;7.086;2024-03-08T05:46:45;17.55;;;3.28;;
32130;SDS011;18639;50.716;7.086;2024-03-08T05:49:13;8.85;;;3.88;;
32130;SDS011;18639;50.716;7.086;2024-03-08T05:51:39;12.48;;;2.95;;
32130;SDS011;18639;50.716;7.086;2024-03-08T05:54:09;8.38;;;2.70;;
32130;SDS011;18639;50.716;7.086;2024-03-08T05:56:36;12.93;;;3.63;;
32130;SDS011;18639;50.716;7.086;2024-03-08T05:59:02;13.95;;;3.90;;
32130;SDS011;18639;50.716;7.086;2024-03-08T06:01:28;10.23;;;2.65;;
32130;SDS011;18639;50.716;7.086;2024-03-08T06:03:54;10.65;;;4.50;;
32130;SDS011;18639;50.716;7.086;2024-03-08T06:06:24;15.55;;;4.70;;
32130;SDS011;18639;50.716;7.086;2024-03-08T06:08:50;9.35;;;3.35;;
32130;SDS011;18639;50.716;7.086;2024-03-08T06:11:16;8.52;;;3.42;;
32130;SDS011;18639;50.716;7.086;2024-03-08T06:13:43;9.23;;;2.70;;
32130;SDS011;18639;50.716;7.086;2024-03-08T06:16:09;9.95;;;3.25;;
32130;SDS011;18639;50.716;7.086;2024-03-08T06:18:35;10.80;;;4.22;;
32130;SDS011;18639;50.716;7.086;2024-03-08T06:21:04;9.23;;;3.42;;
32130;SDS011;18639;50.716;7.086;2024-03-08T06:23:41;11.55;;;3.90;;
32130;SDS011;18639;50.716;7.086;2024-03-08T06:26:07;10.90;;;3.42;;
32130;SDS011;18639;50.716;7.086;2024-03-08T06:28:33;10.30;;;2.92;;
32130;SDS011;18639;50.716;7.086;2024-03-08T06:30:59;9.32;;;3.15;;
32130;SDS011;18639;50.716;7.086;2024-03-08T06:33:25;13.65;;;3.47;;
32130;SDS011;18639;50.716;7.086;2024-03-08T06:35:51;9.90;;;3.38;;
32130;SDS011;18639;50.716;7.086;2024-03-08T06:38:22;12.20;;;3.55;;
32130;SDS011;18639;50.716;7.086;2024-03-08T06:40:51;6.80;;;3.05;;
32130;SDS011;18639;50.716;7.086;2024-03-08T06:43:17;9.32;;;2.75;;
32130;SDS011;18639;50.716;7.086;2024-03-08T06:45:43;9.70;;;2.88;;
32130;SDS011;18639;50.716;7.086;2024-03-08T06:48:15;6.22;;;2.55;;
32130;SDS011;18639;50.716;7.086;2024-03-08T06:50:45;8.60;;;3.72;;
32130;SDS011;18639;50.716;7.086;2024-03-08T06:53:12;9.82;;;3.20;;
32130;SDS011;18639;50.716;7.086;2024-03-08T06:55:38;8.18;;;3.45;;
32130;SDS011;18639;50.716;7.086;2024-03-08T06:58:04;11.75;;;3.58;;
32130;SDS011;18639;50.716;7.086;2024-03-08T07:00:29;12.13;;;3.72;;
32130;SDS011;18639;50.716;7.086;2024-03-08T07:02:55;10.70;;;3.72;;
32130;SDS011;18639;50.716;7.086;2024-03-08T07:05:22;11.43;;;3.88;;
32130;SDS011;18639;50.716;7.086;2024-03-08T07:07:49;10.63;;;3.67;;
32130;SDS011;18639;50.716;7.086;2024-03-08T07:10:16;9.68;;;3.30;;
32130;SDS011;18639;50.716;7.086;2024-03-08T07:12:41;10.57;;;3.42;;
32130;SDS011;18639;50.716;7.086;2024-03-08T07:15:07;10.02;;;3.47;;
32130;SDS011;18639;50.716;7.086;2024-03-08T07:17:33;12.20;;;3.45;;
32130;SDS011;18639;50.716;7.086;2024-03-08T07:20:00;10.73;;;3.13;;
32130;SDS011;18639;50.716;7.086;2024-03-08T07:22:31;12.02;;;3.63;;
32130;SDS011;18639;50.716;7.086;2024-03-08T07:24:57;12.15;;;3.53;;
32130;SDS011;18639;50.716;7.086;2024-03-08T07:27:41;8.10;;;2.85;;
32130;SDS011;18639;50.716;7.086;2024-03-08T07:30:06;10.45;;;3.28;;
32130;SDS011;18639;50.716;7.086;2024-03-08T07:32:35;12.57;;;3.83;;
32130;SDS011;18639;50.716;7.086;2024-03-08T07:35:00;12.07;;;3.95;;
32130;SDS011;18639;50.716;7.086;2024-03-08T07:37:27;12.15;;;4.07;;
32130;SDS011;18639;50.716;7.086;2024-03-08T07:39:52;13.30;;;4.25;;
32130;SDS011;18639;50.716;7.086;2024-03-08T07:42:17;13.20;;;4.40;;
32130;SDS011;18639;50.716;7.086;2024-03-08T07:44:42;14.43;;;3.97;;
32130;SDS011;18639;50.716;7.086;2024-03-08T07:47:08;15.32;;;3.72;;
32130;SDS011;18639;50.716;7.086;2024-03-08T07:49:34;13.80;;;4.15;;
32130;SDS011;18639;50.716;7.086;2024-03-08T07:52:00;14.27;;;4.57;;
32130;SDS011;18639;50.716;7.086;2024-03-08T07:54:25;12.65;;;4.50;;
32130;SDS011;18639;50.716;7.086;2024-03-08T07:56:51;13.95;;;3.88;;
32130;SDS011;18639;50.716;7.086;2024-03-08T07:59:17;15.18;;;4.45;;
32130;SDS011;18639;50.716;7.086;2024-03-08T08:01:43;15.05;;;4.88;;
32130;SDS011;18639;50.716;7.086;2024-03-08T08:04:09;10.55;;;3.97;;
32130;SDS011;18639;50.716;7.086;2024-03-08T08:06:37;11.43;;;3.70;;
32130;SDS011;18639;50.716;7.086;2024-03-08T08:09:05;14.95;;;4.70;;
32130;SDS011;18639;50.716;7.086;2024-03-08T08:11:34;13.23;;;3.95;;
32130;SDS011;18639;50.716;7.086;2024-03-08T08:14:00;11.30;;;4.13;;
32130;SDS011;18639;50.716;7.086;2024-03-08T08:16:25;10.43;;;4.07;;
32130;SDS011;18639;50.716;7.086;2024-03-08T08:18:51;13.88;;;5.15;;
32130;SDS011;18639;50.716;7.086;2024-03-08T08:21:18;16.10;;;4.60;;
32130;SDS011;18639;50.716;7.086;2024-03-08T08:23:43;16.67;;;4.55;;
32130;SDS011;18639;50.716;7.086;2024-03-08T08:26:10;14.88;;;4.53;;
32130;SDS011;18639;50.716;7.086;2024-03-08T08:28:36;10.63;;;3.88;;
32130;SDS011;18639;50.716;7.086;2024-03-08T08:31:01;13.13;;;4.97;;
32130;SDS011;18639;50.716;7.086;2024-03-08T08:33:29;12.18;;;3.95;;
32130;SDS011;18639;50.716;7.086;2024-03-08T08:35:54;12.65;;;4.18;;
32130;SDS011;18639;50.716;7.086;2024-03-08T08:38:20;14.13;;;4.38;;
32130;SDS011;18639;50.716;7.086;2024-03-08T08:40:45;11.53;;;4.57;;
32130;SDS011;18639;50.716;7.086;2024-03-08T08:43:14;14.38;;;4.53;;
32130;SDS011;18639;50.716;7.086;2024-03-08T08:45:40;13.50;;;4.45;;
32130;SDS011;18639;50.716;7.086;2024-03-08T08:48:06;11.80;;;4.10;;
32130;SDS011;18639;50.716;7.086;2024-03-08T08:50:32;12.00;;;5.03;;
32130;SDS011;18639;50.716;7.086;2024-03-08T08:52:57;13.68;;;4.65;;
32130;SDS011;18639;50.716;7.086;2024-03-08T08:55:46;13.90;;;5.15;;
32130;SDS011;18639;50.716;7.086;2024-03-08T08:58:14;12.65;;;4.70;;
32130;SDS011;18639;50.716;7.086;2024-03-08T09:00:42;13.85;;;4.57;;
32130;SDS011;18639;50.716;7.086;2024-03-08T09:03:10;12.38;;;4.22;;
32130;SDS011;18639;50.716;7.086;2024-03-08T09:05:37;13.10;;;5.22;;
32130;SDS011;18639;50.716;7.086;2024-03-08T09:08:02;9.20;;;3.97;;
32130;SDS011;18639;50.716;7.086;2024-03-08T09:10:30;13.52;;;4.78;;
32130;SDS011;18639;50.716;7.086;2024-03-08T09:12:56;10.32;;;3.72;;
32130;SDS011;18639;50.716;7.086;2024-03-08T09:15:30;8.45;;;4.10;;
32130;SDS011;18639;50.716;7.086;2024-03-08T09:18:07;9.35;;;4.10;;
32130;SDS011;18639;50.716;7.086;2024-03-08T09:20:35;12.63;;;5.05;;
32130;SDS011;18639;50.716;7.086;2024-03-08T09:23:04;9.65;;;4.07;;
32130;SDS011;18639;50.716;7.086;2024-03-08T09:25:35;9.95;;;4.25;;
32130;SDS011;18639;50.716;7.086;2024-03-08T09:28:00;10.32;;;4.57;;
32130;SDS011;18639;50.716;7.086;2024-03-08T09:30:28;9.18;;;4.10;;
32130;SDS011;18639;50.716;7.086;2024-03-08T09:33:00;10.45;;;4.88;;
32130;SDS011;18639;50.716;7.086;2024-03-08T09:35:25;10.68;;;4.53;;
32130;SDS011;18639;50.716;7.086;2024-03-08T09:37:51;9.23;;;3.88;;
32130;SDS011;18639;50.716;7.086;2024-03-08T09:40:41;10.68;;;4.57;;
32130;SDS011;18639;50.716;7.086;2024-03-08T09:43:37;10.52;;;4.35;;
32130;SDS011;18639;50.716;7.086;2024-03-08T09:46:07;10.10;;;3.90;;
32130;SDS011;18639;50.716;7.086;2024-03-08T09:48:35;10.07;;;4.65;;
32130;SDS011;18639;50.716;7.086;2024-03-08T09:51:04;8.00;;;4.28;;
32130;SDS011;18639;50.716;7.086;2024-03-08T09:53:40;13.25;;;4.97;;
32130;SDS011;18639;50.716;7.086;2024-03-08T09:56:07;9.02;;;4.10;;
32130;SDS011;18639;50.716;7.086;2024-03-08T09:58:33;11.02;;;5.07;;
32130;SDS011;18639;50.716;7.086;2024-03-08T10:01:01;9.90;;;4.03;;
32130;SDS011;18639;50.716;7.086;2024-03-08T10:03:37;10.52;;;4.03;;
32130;SDS011;18639;50.716;7.086;2024-03-08T10:06:13;9.20;;;4.25;;
32130;SDS011;18639;50.716;7.086;2024-03-08T10:08:45;8.75;;;3.95;;
32130;SDS011;18639;50.716;7.086;2024-03-08T10:11:13;8.07;;;3.83;;
32130;SDS011;18639;50.716;7.086;2024-03-08T10:13:39;10.23;;;4.07;;
32130;SDS011;18639;50.716;7.086;2024-03-08T10:16:05;6.97;;;3.13;;
32130;SDS011;18639;50.716;7.086;2024-03-08T10:18:34;8.07;;;3.90;;
32130;SDS011;18639;50.716;7.086;2024-03-08T10:21:03;7.18;;;3.67;;
32130;SDS011;18639;50.716;7.086;2024-03-08T10:23:32;9.73;;;3.92;;
32130;SDS011;18639;50.716;7.086;2024-03-08T10:26:08;8.32;;;3.55;;
32130;SDS011;18639;50.716;7.086;2024-03-08T10:28:34;10.25;;;4.32;;
32130;SDS011;18639;50.716;7.086;2024-03-08T10:31:15;8.88;;;3.58;;
32130;SDS011;18639;50.716;7.086;2024-03-08T10:33:45;8.40;;;3.65;;
32130;SDS011;18639;50.716;7.086;2024-03-08T10:36:15;8.15;;;3.55;;
32130;SDS011;18639;50.716;7.086;2024-03-08T10:38:42;8.68;;;4.00;;
32130;SDS011;18639;50.716;7.086;2024-03-08T10:41:12;8.23;;;3.85;;
32130;SDS011;18639;50.716;7.086;2024-03-08T10:43:58;12.07;;;4.22;;
32130;SDS011;18639;50.716;7.086;2024-03-08T10:49:26;10.43;;;4.25;;
32130;SDS011;18639;50.716;7.086;2024-03-08T10:51:59;7.97;;;3.55;;
32130;SDS011;18639;50.716;7.086;2024-03-08T10:54:28;8.13;;;3.28;;
32130;SDS011;18639;50.716;7.086;2024-03-08T10:56:56;10.30;;;3.65;;
32130;SDS011;18639;50.716;7.086;2024-03-08T10:59:23;7.90;;;3.63;;
32130;SDS011;18639;50.716;7.086;2024-03-08T11:01:52;9.70;;;3.42;;
32130;SDS011;18639;50.716;7.086;2024-03-08T11:04:18;10.43;;;3.55;;
32130;SDS011;18639;50.716;7.086;2024-03-08T11:07:02;8.23;;;3.35;;
32130;SDS011;18639;50.716;7.086;2024-03-08T11:09:32;6.45;;;3.13;;
32130;SDS011;18639;50.716;7.086;2024-03-08T11:14:50;11.15;;;4.55;;
32130;SDS011;18639;50.716;7.086;2024-03-08T11:17:27;8.30;;;3.38;;
32130;SDS011;18639;50.716;7.086;2024-03-08T11:22:42;8.82;;;3.08;;
32130;SDS011;18639;50.716;7.086;2024-03-08T11:28:11;6.95;;;3.00;;
32130;SDS011;18639;50.716;7.086;2024-03-08T11:30:42;8.98;;;3.67;;
32130;SDS011;18639;50.716;7.086;2024-03-08T11:33:23;8.70;;;3.40;;
32130;SDS011;18639;50.716;7.086;2024-03-08T11:35:51;8.70;;;3.20;;
32130;SDS011;18639;50.716;7.086;2024-03-08T11:38:16;7.50;;;2.90;;
32130;SDS011;18639;50.716;7.086;2024-03-08T11:40:44;9.68;;;3.33;;
32130;SDS011;18639;50.716;7.086;2024-03-08T11:43:15;8.55;;;3.30;;
32130;SDS011;18639;50.716;7.086;2024-03-08T11:45:41;7.82;;;3.13;;
32130;SDS011;18639;50.716;7.086;2024-03-08T11:48:06;8.65;;;3.53;;
32130;SDS011;18639;50.716;7.086;2024-03-08T11:50:31;8.30;;;3.22;;
32130;SDS011;18639;50.716;7.086;2024-03-08T11:53:01;9.25;;;3.53;;
32130;SDS011;18639;50.716;7.086;2024-03-08T11:55:28;7.35;;;3.13;;
32130;SDS011;18639;50.716;7.086;2024-03-08T11:58:03;9.60;;;3.63;;
32130;SDS011;18639;50.716;7.086;2024-03-08T12:00:29;7.60;;;3.28;;
32130;SDS011;18639;50.716;7.086;2024-03-08T12:03:03;6.68;;;3.17;;
32130;SDS011;18639;50.716;7.086;2024-03-08T12:05:30;8.30;;;2.78;;
32130;SDS011;18639;50.716;7.086;2024-03-08T12:07:57;9.07;;;3.00;;
32130;SDS011;18639;50.716;7.086;2024-03-08T12:10:34;7.00;;;3.25;;
32130;SDS011;18639;50.716;7.086;2024-03-08T12:13:00;6.95;;;2.85;;
32130;SDS011;18639;50.716;7.086;2024-03-08T12:15:31;7.07;;;3.20;;
32130;SDS011;18639;50.716;7.086;2024-03-08T12:17:59;6.88;;;2.78;;
32130;SDS011;18639;50.716;7.086;2024-03-08T12:20:35;7.30;;;2.90;;
32130;SDS011;18639;50.716;7.086;2024-03-08T12:23:03;7.20;;;3.17;;
32130;SDS011;18639;50.716;7.086;2024-03-08T12:25:30;7.38;;;3.47;;
32130;SDS011;18639;50.716;7.086;2024-03-08T12:28:21;8.50;;;3.58;;
32130;SDS011;18639;50.716;7.086;2024-03-08T12:30:50;8.32;;;2.70;;
32130;SDS011;18639;50.716;7.086;2024-03-08T12:33:22;6.95;;;3.15;;
32130;SDS011;18639;50.716;7.086;2024-03-08T12:35:57;7.97;;;3.08;;
32130;SDS011;18639;50.716;7.086;2024-03-08T12:38:27;9.50;;;3.17;;
32130;SDS011;18639;50.716;7.086;2024-03-08T12:40:59;7.55;;;2.97;;
32130;SDS011;18639;50.716;7.086;2024-03-08T12:43:25;11.20;;;3.10;;
32130;SDS011;18639;50.716;7.086;2024-03-08T12:45:53;8.98;;;2.90;;
32130;SDS011;18639;50.716;7.086;2024-03-08T12:48:19;7.20;;;2.92;;
32130;SDS011;18639;50.716;7.086;2024-03-08T12:50:45;6.68;;;2.65;;
32130;SDS011;18639;50.716;7.086;2024-03-08T12:53:12;8.02;;;3.17;;
32130;SDS011;18639;50.716;7.086;2024-03-08T12:55:38;6.38;;;3.22;;
32130;SDS011;18639;50.716;7.086;2024-03-08T12:58:05;7.65;;;2.85;;
32130;SDS011;18639;50.716;7.086;2024-03-08T13:00:32;7.00;;;2.90;;
32130;SDS011;18639;50.716;7.086;2024-03-08T13:03:04;6.95;;;2.58;;
32130;SDS011;18639;50.716;7.086;2024-03-08T13:05:31;8.48;;;3.08;;
32130;SDS011;18639;50.716;7.086;2024-03-08T13:07:56;9.80;;;2.63;;
32130;SDS011;18639;50.716;7.086;2024-03-08T13:10:22;6.00;;;2.80;;
32130;SDS011;18639;50.716;7.086;2024-03-08T13:12:47;7.38;;;2.92;;
32130;SDS011;18639;50.716;7.086;2024-03-08T13:15:13;9.77;;;3.20;;
32130;SDS011;18639;50.716;7.086;2024-03-08T13:17:48;9.57;;;3.22;;
32130;SDS011;18639;50.716;7.086;2024-03-08T13:20:14;7.40;;;3.42;;
32130;SDS011;18639;50.716;7.086;2024-03-08T13:22:45;6.63;;;3.13;;
32130;SDS011;18639;50.716;7.086;2024-03-08T13:25:11;7.05;;;2.92;;
32130;SDS011;18639;50.716;7.086;2024-03-08T13:27:38;6.32;;;3.10;;
32130;SDS011;18639;50.716;7.086;2024-03-08T13:30:06;7.47;;;2.75;;
32130;SDS011;18639;50.716;7.086;2024-03-08T13:32:32;7.80;;;3.17;;
32130;SDS011;18639;50.716;7.086;2024-03-08T13:34:57;8.27;;;3.50;;
32130;SDS011;18639;50.716;7.086;2024-03-08T13:37:22;9.15;;;3.17;;
32130;SDS011;18639;50.716;7.086;2024-03-08T13:39:48;7.80;;;3.42;;
32130;SDS011;18639;50.716;7.086;2024-03-08T13:42:13;10.35;;;3.15;;
32130;SDS011;18639;50.716;7.086;2024-03-08T13:44:43;7.53;;;2.97;;
32130;SDS011;18639;50.716;7.086;2024-03-08T13:47:09;7.32;;;3.10;;
32130;SDS011;18639;50.716;7.086;2024-03-08T13:49:36;7.38;;;2.97;;
32130;SDS011;18639;50.716;7.086;2024-03-08T13:52:02;5.47;;;2.78;;
32130;SDS011;18639;50.716;7.086;2024-03-08T13:54:28;8.00;;;3.03;;
32130;SDS011;18639;50.716;7.086;2024-03-08T13:56:56;7.35;;;3.00;;
32130;SDS011;18639;50.716;7.086;2024-03-08T13:59:21;10.70;;;3.10;;
32130;SDS011;18639;50.716;7.086;2024-03-08T14:01:50;10.10;;;3.38;;
32130;SDS011;18639;50.716;7.086;2024-03-08T14:04:15;7.65;;;2.53;;
32130;SDS011;18639;50.716;7.086;2024-03-08T14:06:42;9.55;;;3.17;;
32130;SDS011;18639;50.716;7.086;2024-03-08T14:09:09;8.13;;;3.25;;
32130;SDS011;18639;50.716;7.086;2024-03-08T14:11:41;10.57;;;2.90;;
32130;SDS011;18639;50.716;7.086;2024-03-08T14:14:08;7.22;;;3.05;;
32130;SDS011;18639;50.716;7.086;2024-03-08T14:16:34;6.95;;;2.88;;
32130;SDS011;18639;50.716;7.086;2024-03-08T14:19:02;7.57;;;3.20;;
32130;SDS011;18639;50.716;7.086;2024-03-08T14:21:30;6.60;;;2.65;;
32130;SDS011;18639;50.716;7.086;2024-03-08T14:23:58;5.82;;;2.35;;
32130;SDS011;18639;50.716;7.086;2024-03-08T14:26:26;7.00;;;2.80;;
32130;SDS011;18639;50.716;7.086;2024-03-08T14:28:54;7.45;;;2.88;;
32130;SDS011;18639;50.716;7.086;2024-03-08T14:31:20;8.05;;;3.13;;
32130;SDS011;18639;50.716;7.086;2024-03-08T14:33:50;6.43;;;2.83;;
32130;SDS011;18639;50.716;7.086;2024-03-08T14:36:16;8.75;;;3.28;;
32130;SDS011;18639;50.716;7.086;2024-03-08T14:38:48;5.20;;;2.70;;
32130;SDS011;18639;50.716;7.086;2024-03-08T14:41:17;8.75;;;2.72;;
32130;SDS011;18639;50.716;7.086;2024-03-08T14:43:43;6.40;;;2.85;;
32130;SDS011;18639;50.716;7.086;2024-03-08T14:46:12;7.68;;;2.90;;
32130;SDS011;18639;50.716;7.086;2024-03-08T14:48:46;8.73;;;2.90;;
32130;SDS011;18639;50.716;7.086;2024-03-08T14:51:12;7.80;;;2.80;;
32130;SDS011;18639;50.716;7.086;2024-03-08T14:53:42;7.63;;;2.95;;